sensor_id;sensor_type;location;lat;lon;timestamp;pressure;altitude;pressure_sealevel;temperature;humidity
69411;BME280;56604;48.652;9.194;2024-01-30T00:00:33;97508.69;;;5.12;77.40
69411;BME280;56604;48.652;9.194;2024-01-30T00:02:58;97504.28;;;5.12;77.38
69411;BME280;56604;48.652;9.194;2024-01-30T00:05:24;97504.09;;;5.14;76.91
69411;BME280;56604;48.652;9.194;2024-01-30T00:07:50;97511.97;;;5.21;76.61
69411;BME280;56604;48.652;9.194;2024-01-30T00:10:15;97503.09;;;5.15;76.90
69411;BME280;56604;48.652;9.194;2024-01-30T00:12:40;97506.28;;;5.10;76.37
69411;BME280;56604;48.652;9.194;2024-01-30T00:15:06;97506.06;;;5.12;75.83
69411;BME280;56604;48.652;9.194;2024-01-30T00:17:34;97497.97;;;5.22;77.30
69411;BME280;56604;48.652;9.194;2024-01-30T00:19:59;97502.56;;;5.19;75.04
69411;BME280;56604;48.652;9.194;2024-01-30T00:22:25;97506.97;;;5.19;75.26
69411;BME280;56604;48.652;9.194;2024-01-30T00:24:50;97507.41;;;5.23;74.94
69411;BME280;56604;48.652;9.194;2024-01-30T00:27:15;97502.63;;;5.26;74.89
69411;BME280;56604;48.652;9.194;2024-01-30T00:29:41;97501.28;;;5.30;74.93
69411;BME280;56604;48.652;9.194;2024-01-30T00:32:06;97506.66;;;5.29;74.52
69411;BME280;56604;48.652;9.194;2024-01-30T00:34:31;97496.69;;;5.32;74.77
69411;BME280;56604;48.652;9.194;2024-01-30T00:36:57;97498.94;;;5.35;73.76
69411;BME280;56604;48.652;9.194;2024-01-30T00:39:22;97501.53;;;5.35;73.29
69411;BME280;56604;48.652;9.194;2024-01-30T00:41:48;97511.13;;;5.35;73.99
69411;BME280;56604;48.652;9.194;2024-01-30T00:44:13;97497.50;;;5.33;73.44
69411;BME280;56604;48.652;9.194;2024-01-30T00:46:39;97501.59;;;5.42;72.70
69411;BME280;56604;48.652;9.194;2024-01-30T00:49:04;97503.59;;;5.40;72.17
69411;BME280;56604;48.652;9.194;2024-01-30T00:51:29;97504.09;;;5.50;71.55
69411;BME280;56604;48.652;9.194;2024-01-30T00:53:55;97500.91;;;5.55;70.64
69411;BME280;56604;48.652;9.194;2024-01-30T00:56:20;97498.50;;;5.53;70.26
69411;BME280;56604;48.652;9.194;2024-01-30T00:58:46;97508.56;;;5.56;70.07
69411;BME280;56604;48.652;9.194;2024-01-30T01:01:11;97499.81;;;5.64;69.34
69411;BME280;56604;48.652;9.194;2024-01-30T01:03:36;97500.25;;;5.68;69.24
69411;BME280;56604;48.652;9.194;2024-01-30T01:06:02;97496.63;;;5.69;69.03
69411;BME280;56604;48.652;9.194;2024-01-30T01:08:27;97498.19;;;5.63;70.00
69411;BME280;56604;48.652;9.194;2024-01-30T01:10:52;97497.81;;;5.66;69.79
69411;BME280;56604;48.652;9.194;2024-01-30T01:13:18;97498.56;;;5.60;69.48
69411;BME280;56604;48.652;9.194;2024-01-30T01:15:43;97502.72;;;5.54;70.27
69411;BME280;56604;48.652;9.194;2024-01-30T01:18:08;97504.78;;;5.59;70.05
69411;BME280;56604;48.652;9.194;2024-01-30T01:20:34;97496.59;;;5.62;69.63
69411;BME280;56604;48.652;9.194;2024-01-30T01:22:59;97504.72;;;5.74;68.03
69411;BME280;56604;48.652;9.194;2024-01-30T01:25:24;97495.59;;;5.84;67.34
69411;BME280;56604;48.652;9.194;2024-01-30T01:27:49;97498.06;;;5.93;67.10
69411;BME280;56604;48.652;9.194;2024-01-30T01:30:18;97494.84;;;5.91;67.66
69411;BME280;56604;48.652;9.194;2024-01-30T01:32:48;97502.66;;;5.91;66.93
69411;BME280;56604;48.652;9.194;2024-01-30T01:35:23;97492.44;;;5.89;67.29
69411;BME280;56604;48.652;9.194;2024-01-30T01:37:50;97492.44;;;5.89;66.79
69411;BME280;56604;48.652;9.194;2024-01-30T01:40:23;97493.63;;;5.86;67.75
69411;BME280;56604;48.652;9.194;2024-01-30T01:42:50;97495.34;;;5.79;69.04
69411;BME280;56604;48.652;9.194;2024-01-30T01:45:17;97496.03;;;5.67;69.90
69411;BME280;56604;48.652;9.194;2024-01-30T01:47:42;97496.22;;;5.65;70.53
69411;BME280;56604;48.652;9.194;2024-01-30T01:50:08;97500.56;;;5.58;70.36
69411;BME280;56604;48.652;9.194;2024-01-30T01:52:34;97493.59;;;5.65;71.29
69411;BME280;56604;48.652;9.194;2024-01-30T01:54:59;97497.34;;;5.56;71.10
69411;BME280;56604;48.652;9.194;2024-01-30T01:57:25;97501.28;;;5.52;71.20
69411;BME280;56604;48.652;9.194;2024-01-30T01:59:50;97489.31;;;5.57;71.79
69411;BME280;56604;48.652;9.194;2024-01-30T02:02:17;97496.06;;;5.52;71.75
69411;BME280;56604;48.652;9.194;2024-01-30T02:04:43;97491.31;;;5.55;71.47
69411;BME280;56604;48.652;9.194;2024-01-30T02:07:09;97494.53;;;5.57;71.71
69411;BME280;56604;48.652;9.194;2024-01-30T02:09:34;97492.50;;;5.53;71.88
69411;BME280;56604;48.652;9.194;2024-01-30T02:12:00;97495.69;;;5.55;71.84
69411;BME280;56604;48.652;9.194;2024-01-30T02:14:25;97493.47;;;5.52;72.34
69411;BME280;56604;48.652;9.194;2024-01-30T02:16:50;97496.00;;;5.45;72.62
69411;BME280;56604;48.652;9.194;2024-01-30T02:19:16;97493.16;;;5.40;73.04
69411;BME280;56604;48.652;9.194;2024-01-30T02:21:41;97498.09;;;5.35;73.30
69411;BME280;56604;48.652;9.194;2024-01-30T02:24:06;97498.69;;;5.30;74.37
69411;BME280;56604;48.652;9.194;2024-01-30T02:26:32;97495.81;;;5.25;73.94
69411;BME280;56604;48.652;9.194;2024-01-30T02:28:57;97497.97;;;5.22;74.48
69411;BME280;56604;48.652;9.194;2024-01-30T02:31:22;97490.31;;;5.20;74.76
69411;BME280;56604;48.652;9.194;2024-01-30T02:33:49;97496.53;;;5.19;74.34
69411;BME280;56604;48.652;9.194;2024-01-30T02:36:15;97499.09;;;5.12;74.68
69411;BME280;56604;48.652;9.194;2024-01-30T02:38:40;97498.00;;;5.07;75.29
69411;BME280;56604;48.652;9.194;2024-01-30T02:41:06;97496.38;;;5.06;74.92
69411;BME280;56604;48.652;9.194;2024-01-30T02:43:31;97495.50;;;4.99;74.91
69411;BME280;56604;48.652;9.194;2024-01-30T02:45:56;97489.13;;;5.01;75.07
69411;BME280;56604;48.652;9.194;2024-01-30T02:48:23;97491.09;;;4.99;75.49
69411;BME280;56604;48.652;9.194;2024-01-30T02:50:48;97487.84;;;4.97;75.36
69411;BME280;56604;48.652;9.194;2024-01-30T02:53:14;97482.00;;;4.95;76.23
69411;BME280;56604;48.652;9.194;2024-01-30T02:55:39;97487.94;;;4.89;75.57
69411;BME280;56604;48.652;9.194;2024-01-30T02:58:04;97490.13;;;4.85;76.13
69411;BME280;56604;48.652;9.194;2024-01-30T03:00:29;97497.31;;;4.83;76.00
69411;BME280;56604;48.652;9.194;2024-01-30T03:02:55;97490.75;;;4.87;75.74
69411;BME280;56604;48.652;9.194;2024-01-30T03:05:20;97489.31;;;4.85;75.88
69411;BME280;56604;48.652;9.194;2024-01-30T03:07:45;97492.03;;;4.77;75.49
69411;BME280;56604;48.652;9.194;2024-01-30T03:10:11;97492.53;;;4.72;75.20
69411;BME280;56604;48.652;9.194;2024-01-30T03:12:36;97492.09;;;4.68;75.86
69411;BME280;56604;48.652;9.194;2024-01-30T03:15:01;97488.25;;;4.64;75.79
69411;BME280;56604;48.652;9.194;2024-01-30T03:17:27;97488.63;;;4.61;76.55
69411;BME280;56604;48.652;9.194;2024-01-30T03:19:52;97491.59;;;4.58;75.86
69411;BME280;56604;48.652;9.194;2024-01-30T03:22:17;97496.78;;;4.58;76.12
69411;BME280;56604;48.652;9.194;2024-01-30T03:24:43;97494.63;;;4.62;76.50
69411;BME280;56604;48.652;9.194;2024-01-30T03:27:08;97495.88;;;4.66;75.54
69411;BME280;56604;48.652;9.194;2024-01-30T03:29:34;97499.66;;;4.63;76.62
69411;BME280;56604;48.652;9.194;2024-01-30T03:31:59;97495.59;;;4.61;76.20
69411;BME280;56604;48.652;9.194;2024-01-30T03:34:24;97491.75;;;4.57;77.28
69411;BME280;56604;48.652;9.194;2024-01-30T03:36:50;97495.72;;;4.53;77.22
69411;BME280;56604;48.652;9.194;2024-01-30T03:39:15;97497.69;;;4.50;76.62
69411;BME280;56604;48.652;9.194;2024-01-30T03:41:42;97493.19;;;4.44;77.33
69411;BME280;56604;48.652;9.194;2024-01-30T03:44:08;97491.28;;;4.38;77.76
69411;BME280;56604;48.652;9.194;2024-01-30T03:46:33;97492.28;;;4.37;78.61
69411;BME280;56604;48.652;9.194;2024-01-30T03:48:59;97498.84;;;4.33;78.60
69411;BME280;56604;48.652;9.194;2024-01-30T03:51:24;97491.91;;;4.25;78.26
69411;BME280;56604;48.652;9.194;2024-01-30T03:53:49;97499.63;;;4.19;79.21
69411;BME280;56604;48.652;9.194;2024-01-30T03:56:15;97502.59;;;4.16;79.56
69411;BME280;56604;48.652;9.194;2024-01-30T03:58:40;97498.34;;;4.15;79.81
69411;BME280;56604;48.652;9.194;2024-01-30T04:01:07;97506.16;;;4.15;79.00
69411;BME280;56604;48.652;9.194;2024-01-30T04:03:33;97497.38;;;4.16;78.92
69411;BME280;56604;48.652;9.194;2024-01-30T04:05:58;97503.09;;;4.11;79.81
69411;BME280;56604;48.652;9.194;2024-01-30T04:08:23;97503.63;;;4.06;80.32
69411;BME280;56604;48.652;9.194;2024-01-30T04:10:48;97508.81;;;4.06;80.42
69411;BME280;56604;48.652;9.194;2024-01-30T04:13:14;97509.19;;;4.03;80.73
69411;BME280;56604;48.652;9.194;2024-01-30T04:15:39;97505.31;;;3.99;80.75
69411;BME280;56604;48.652;9.194;2024-01-30T04:18:05;97504.50;;;3.99;80.49
69411;BME280;56604;48.652;9.194;2024-01-30T04:20:30;97512.47;;;3.97;80.70
69411;BME280;56604;48.652;9.194;2024-01-30T04:22:55;97501.63;;;3.94;80.69
69411;BME280;56604;48.652;9.194;2024-01-30T04:25:21;97500.81;;;3.93;80.76
69411;BME280;56604;48.652;9.194;2024-01-30T04:27:47;97502.44;;;3.94;81.02
69411;BME280;56604;48.652;9.194;2024-01-30T04:30:12;97498.56;;;3.90;81.39
69411;BME280;56604;48.652;9.194;2024-01-30T04:32:38;97497.94;;;3.88;81.37
69411;BME280;56604;48.652;9.194;2024-01-30T04:35:03;97499.59;;;3.81;81.75
69411;BME280;56604;48.652;9.194;2024-01-30T04:37:29;97502.19;;;3.81;81.41
69411;BME280;56604;48.652;9.194;2024-01-30T04:39:54;97493.44;;;3.82;81.03
69411;BME280;56604;48.652;9.194;2024-01-30T04:42:19;97495.38;;;3.80;81.85
69411;BME280;56604;48.652;9.194;2024-01-30T04:44:45;97499.88;;;3.86;81.46
69411;BME280;56604;48.652;9.194;2024-01-30T04:47:10;97492.72;;;3.88;80.99
69411;BME280;56604;48.652;9.194;2024-01-30T04:49:38;97496.06;;;3.97;79.44
69411;BME280;56604;48.652;9.194;2024-01-30T04:52:04;97490.25;;;4.10;79.17
69411;BME280;56604;48.652;9.194;2024-01-30T04:54:29;97490.09;;;4.26;78.03
69411;BME280;56604;48.652;9.194;2024-01-30T04:56:55;97505.28;;;4.22;78.71
69411;BME280;56604;48.652;9.194;2024-01-30T04:59:20;97500.94;;;4.15;79.43
69411;BME280;56604;48.652;9.194;2024-01-30T05:01:45;97507.22;;;4.05;78.94
69411;BME280;56604;48.652;9.194;2024-01-30T05:04:11;97509.47;;;4.09;79.63
69411;BME280;56604;48.652;9.194;2024-01-30T05:06:36;97500.16;;;4.29;77.28
69411;BME280;56604;48.652;9.194;2024-01-30T05:09:02;97503.31;;;4.39;76.04
69411;BME280;56604;48.652;9.194;2024-01-30T05:11:29;97503.75;;;4.28;76.46
69411;BME280;56604;48.652;9.194;2024-01-30T05:13:54;97509.19;;;4.18;77.83
69411;BME280;56604;48.652;9.194;2024-01-30T05:16:19;97507.50;;;4.11;77.33
69411;BME280;56604;48.652;9.194;2024-01-30T05:18:45;97511.06;;;4.10;78.59
69411;BME280;56604;48.652;9.194;2024-01-30T05:21:10;97502.28;;;4.11;78.34
69411;BME280;56604;48.652;9.194;2024-01-30T05:23:36;97503.97;;;4.03;77.54
69411;BME280;56604;48.652;9.194;2024-01-30T05:26:01;97508.88;;;3.98;78.97
69411;BME280;56604;48.652;9.194;2024-01-30T05:28:29;97502.78;;;3.91;79.02
69411;BME280;56604;48.652;9.194;2024-01-30T05:30:55;97504.28;;;3.86;79.28
69411;BME280;56604;48.652;9.194;2024-01-30T05:33:20;97507.06;;;3.84;79.12
69411;BME280;56604;48.652;9.194;2024-01-30T05:35:46;97498.28;;;3.85;79.47
69411;BME280;56604;48.652;9.194;2024-01-30T05:38:11;97506.25;;;3.83;79.70
69411;BME280;56604;48.652;9.194;2024-01-30T05:40:37;97507.41;;;3.81;79.92
69411;BME280;56604;48.652;9.194;2024-01-30T05:43:03;97513.94;;;3.77;80.21
69411;BME280;56604;48.652;9.194;2024-01-30T05:45:28;97508.09;;;3.75;80.35
69411;BME280;56604;48.652;9.194;2024-01-30T05:47:54;97511.41;;;3.69;79.80
69411;BME280;56604;48.652;9.194;2024-01-30T05:50:19;97515.97;;;3.67;80.20
69411;BME280;56604;48.652;9.194;2024-01-30T05:52:45;97512.84;;;3.71;80.59
69411;BME280;56604;48.652;9.194;2024-01-30T05:55:11;97516.59;;;3.69;79.71
69411;BME280;56604;48.652;9.194;2024-01-30T05:57:37;97518.06;;;3.71;79.65
69411;BME280;56604;48.652;9.194;2024-01-30T06:00:04;97526.72;;;3.64;79.73
69411;BME280;56604;48.652;9.194;2024-01-30T06:02:30;97527.06;;;3.60;80.13
69411;BME280;56604;48.652;9.194;2024-01-30T06:04:55;97532.16;;;3.54;81.22
69411;BME280;56604;48.652;9.194;2024-01-30T06:07:20;97526.94;;;3.54;80.70
69411;BME280;56604;48.652;9.194;2024-01-30T06:09:47;97528.75;;;3.53;80.42
69411;BME280;56604;48.652;9.194;2024-01-30T06:12:12;97520.44;;;3.50;80.75
69411;BME280;56604;48.652;9.194;2024-01-30T06:14:37;97521.63;;;3.47;80.72
69411;BME280;56604;48.652;9.194;2024-01-30T06:17:03;97516.91;;;3.51;80.64
69411;BME280;56604;48.652;9.194;2024-01-30T06:19:30;97521.44;;;3.49;81.18
69411;BME280;56604;48.652;9.194;2024-01-30T06:21:55;97520.00;;;3.46;80.69
69411;BME280;56604;48.652;9.194;2024-01-30T06:24:20;97521.94;;;3.44;81.51
69411;BME280;56604;48.652;9.194;2024-01-30T06:26:45;97518.53;;;3.44;80.60
69411;BME280;56604;48.652;9.194;2024-01-30T06:29:11;97523.59;;;3.45;80.09
69411;BME280;56604;48.652;9.194;2024-01-30T06:31:40;97523.69;;;3.52;79.27
69411;BME280;56604;48.652;9.194;2024-01-30T06:34:06;97529.00;;;3.58;78.99
69411;BME280;56604;48.652;9.194;2024-01-30T06:36:32;97518.56;;;3.67;78.35
69411;BME280;56604;48.652;9.194;2024-01-30T06:38:57;97511.69;;;3.74;77.60
69411;BME280;56604;48.652;9.194;2024-01-30T06:41:22;97512.59;;;3.81;76.82
69411;BME280;56604;48.652;9.194;2024-01-30T06:43:47;97511.59;;;3.90;76.20
69411;BME280;56604;48.652;9.194;2024-01-30T06:46:13;97514.09;;;3.98;75.49
69411;BME280;56604;48.652;9.194;2024-01-30T06:48:39;97513.78;;;4.01;75.70
69411;BME280;56604;48.652;9.194;2024-01-30T06:51:05;97521.03;;;4.06;75.41
69411;BME280;56604;48.652;9.194;2024-01-30T06:53:30;97519.88;;;4.09;75.60
69411;BME280;56604;48.652;9.194;2024-01-30T06:55:56;97521.06;;;4.21;76.78
69411;BME280;56604;48.652;9.194;2024-01-30T06:58:21;97521.28;;;4.64;78.47
69411;BME280;56604;48.652;9.194;2024-01-30T07:00:46;97519.66;;;4.78;76.06
69411;BME280;56604;48.652;9.194;2024-01-30T07:03:12;97516.44;;;5.41;71.34
69411;BME280;56604;48.652;9.194;2024-01-30T07:05:37;97524.31;;;5.12;70.16
69411;BME280;56604;48.652;9.194;2024-01-30T07:08:02;97523.94;;;5.15;70.66
69411;BME280;56604;48.652;9.194;2024-01-30T07:10:28;97529.16;;;5.30;69.14
69411;BME280;56604;48.652;9.194;2024-01-30T07:12:53;97522.91;;;5.46;69.00
69411;BME280;56604;48.652;9.194;2024-01-30T07:15:19;97530.25;;;5.57;67.81
69411;BME280;56604;48.652;9.194;2024-01-30T07:17:45;97541.63;;;5.71;67.85
69411;BME280;56604;48.652;9.194;2024-01-30T07:20:11;97534.34;;;5.66;67.37
69411;BME280;56604;48.652;9.194;2024-01-30T07:22:36;97538.31;;;5.62;68.03
69411;BME280;56604;48.652;9.194;2024-01-30T07:25:02;97542.78;;;5.68;67.72
69411;BME280;56604;48.652;9.194;2024-01-30T07:27:27;97536.41;;;5.71;66.73
69411;BME280;56604;48.652;9.194;2024-01-30T07:29:52;97535.59;;;5.70;67.42
69411;BME280;56604;48.652;9.194;2024-01-30T07:32:18;97542.69;;;5.76;67.51
69411;BME280;56604;48.652;9.194;2024-01-30T07:34:43;97540.22;;;5.90;66.52
69411;BME280;56604;48.652;9.194;2024-01-30T07:37:09;97540.03;;;6.13;66.05
69411;BME280;56604;48.652;9.194;2024-01-30T07:39:35;97534.47;;;6.22;65.65
69411;BME280;56604;48.652;9.194;2024-01-30T07:42:01;97529.34;;;6.29;65.87
69411;BME280;56604;48.652;9.194;2024-01-30T07:44:26;97539.63;;;6.37;65.16
69411;BME280;56604;48.652;9.194;2024-01-30T07:46:51;97537.84;;;6.38;65.20
69411;BME280;56604;48.652;9.194;2024-01-30T07:49:17;97540.44;;;6.38;65.09
69411;BME280;56604;48.652;9.194;2024-01-30T07:51:42;97542.72;;;6.47;64.87
69411;BME280;56604;48.652;9.194;2024-01-30T07:54:11;97533.59;;;6.65;64.45
69411;BME280;56604;48.652;9.194;2024-01-30T07:56:39;97536.75;;;6.60;64.38
69411;BME280;56604;48.652;9.194;2024-01-30T07:59:05;97540.47;;;6.72;64.13
69411;BME280;56604;48.652;9.194;2024-01-30T08:01:30;97549.78;;;6.88;64.51
69411;BME280;56604;48.652;9.194;2024-01-30T08:03:56;97550.28;;;7.05;63.18
69411;BME280;56604;48.652;9.194;2024-01-30T08:06:21;97548.38;;;7.20;63.03
69411;BME280;56604;48.652;9.194;2024-01-30T08:08:46;97547.03;;;7.51;62.58
69411;BME280;56604;48.652;9.194;2024-01-30T08:11:12;97542.31;;;7.75;60.44
69411;BME280;56604;48.652;9.194;2024-01-30T08:13:37;97544.72;;;7.83;60.64
69411;BME280;56604;48.652;9.194;2024-01-30T08:16:02;97549.75;;;7.91;59.85
69411;BME280;56604;48.652;9.194;2024-01-30T08:18:28;97540.53;;;8.08;60.08
69411;BME280;56604;48.652;9.194;2024-01-30T08:20:53;97537.31;;;8.33;59.07
69411;BME280;56604;48.652;9.194;2024-01-30T08:23:18;97534.47;;;8.68;58.66
69411;BME280;56604;48.652;9.194;2024-01-30T08:25:44;97531.59;;;8.96;57.02
69411;BME280;56604;48.652;9.194;2024-01-30T08:28:09;97533.44;;;9.40;55.28
69411;BME280;56604;48.652;9.194;2024-01-30T08:30:34;97534.69;;;9.76;53.43
69411;BME280;56604;48.652;9.194;2024-01-30T08:33:00;97525.25;;;10.25;52.35
69411;BME280;56604;48.652;9.194;2024-01-30T08:35:26;97519.91;;;10.82;51.10
69411;BME280;56604;48.652;9.194;2024-01-30T08:37:51;97527.56;;;10.84;50.05
69411;BME280;56604;48.652;9.194;2024-01-30T08:40:16;97526.91;;;11.07;50.36
69411;BME280;56604;48.652;9.194;2024-01-30T08:42:41;97525.09;;;11.56;49.12
69411;BME280;56604;48.652;9.194;2024-01-30T08:45:07;97535.56;;;11.44;48.10
69411;BME280;56604;48.652;9.194;2024-01-30T08:47:34;97532.06;;;11.80;47.81
69411;BME280;56604;48.652;9.194;2024-01-30T08:49:59;97536.88;;;11.83;46.86
69411;BME280;56604;48.652;9.194;2024-01-30T08:52:24;97535.75;;;12.33;46.79
69411;BME280;56604;48.652;9.194;2024-01-30T08:54:50;97539.88;;;12.29;46.16
69411;BME280;56604;48.652;9.194;2024-01-30T08:57:15;97537.50;;;12.51;45.52
69411;BME280;56604;48.652;9.194;2024-01-30T08:59:40;97549.00;;;12.14;45.01
69411;BME280;56604;48.652;9.194;2024-01-30T09:02:06;97546.78;;;12.30;45.71
69411;BME280;56604;48.652;9.194;2024-01-30T09:04:31;97552.97;;;12.35;46.56
69411;BME280;56604;48.652;9.194;2024-01-30T09:06:57;97545.84;;;12.36;46.48
69411;BME280;56604;48.652;9.194;2024-01-30T09:09:22;97543.22;;;12.59;45.45
69411;BME280;56604;48.652;9.194;2024-01-30T09:11:47;97550.22;;;12.42;44.97
69411;BME280;56604;48.652;9.194;2024-01-30T09:14:13;97556.72;;;12.28;46.44
69411;BME280;56604;48.652;9.194;2024-01-30T09:16:38;97544.47;;;12.69;45.74
69411;BME280;56604;48.652;9.194;2024-01-30T09:19:04;97556.19;;;12.73;45.24
69411;BME280;56604;48.652;9.194;2024-01-30T09:21:29;97563.19;;;11.90;45.27
69411;BME280;56604;48.652;9.194;2024-01-30T09:23:54;97564.50;;;12.23;46.13
69411;BME280;56604;48.652;9.194;2024-01-30T09:26:26;97559.16;;;12.41;45.41
69411;BME280;56604;48.652;9.194;2024-01-30T09:28:51;97565.69;;;12.27;46.65
69411;BME280;56604;48.652;9.194;2024-01-30T09:31:17;97565.22;;;12.30;46.08
69411;BME280;56604;48.652;9.194;2024-01-30T09:33:42;97564.97;;;12.20;46.53
69411;BME280;56604;48.652;9.194;2024-01-30T09:36:09;97565.31;;;12.23;46.26
69411;BME280;56604;48.652;9.194;2024-01-30T09:38:34;97561.56;;;12.43;45.45
69411;BME280;56604;48.652;9.194;2024-01-30T09:41:03;97567.59;;;12.20;45.82
69411;BME280;56604;48.652;9.194;2024-01-30T09:43:33;97565.09;;;12.25;44.09
69411;BME280;56604;48.652;9.194;2024-01-30T09:46:00;97562.28;;;12.73;44.72
69411;BME280;56604;48.652;9.194;2024-01-30T09:48:27;97568.00;;;12.70;45.10
69411;BME280;56604;48.652;9.194;2024-01-30T09:50:54;97570.19;;;12.38;45.66
69411;BME280;56604;48.652;9.194;2024-01-30T09:53:22;97572.75;;;12.26;45.24
69411;BME280;56604;48.652;9.194;2024-01-30T09:55:47;97570.25;;;12.31;44.94
69411;BME280;56604;48.652;9.194;2024-01-30T09:58:15;97573.13;;;12.30;45.12
69411;BME280;56604;48.652;9.194;2024-01-30T10:00:41;97574.53;;;12.44;44.64
69411;BME280;56604;48.652;9.194;2024-01-30T10:03:06;97573.50;;;12.45;44.77
69411;BME280;56604;48.652;9.194;2024-01-30T10:05:31;97582.34;;;12.63;43.88
69411;BME280;56604;48.652;9.194;2024-01-30T10:07:59;97581.53;;;12.50;44.48
69411;BME280;56604;48.652;9.194;2024-01-30T10:10:25;97578.22;;;12.67;44.12
69411;BME280;56604;48.652;9.194;2024-01-30T10:12:51;97581.66;;;12.55;44.47
69411;BME280;56604;48.652;9.194;2024-01-30T10:15:17;97572.22;;;12.36;44.47
69411;BME280;56604;48.652;9.194;2024-01-30T10:17:44;97582.91;;;12.41;43.90
69411;BME280;56604;48.652;9.194;2024-01-30T10:20:10;97571.88;;;12.32;44.29
69411;BME280;56604;48.652;9.194;2024-01-30T10:22:35;97572.00;;;12.49;44.68
69411;BME280;56604;48.652;9.194;2024-01-30T10:25:00;97572.00;;;12.49;44.60
69411;BME280;56604;48.652;9.194;2024-01-30T10:27:26;97575.78;;;12.42;44.21
69411;BME280;56604;48.652;9.194;2024-01-30T10:29:52;97572.56;;;12.40;44.45
69411;BME280;56604;48.652;9.194;2024-01-30T10:32:17;97572.56;;;12.28;45.23
69411;BME280;56604;48.652;9.194;2024-01-30T10:34:43;97571.97;;;12.26;45.29
69411;BME280;56604;48.652;9.194;2024-01-30T10:37:10;97580.72;;;12.38;45.36
69411;BME280;56604;48.652;9.194;2024-01-30T10:39:39;97570.59;;;12.35;45.30
69411;BME280;56604;48.652;9.194;2024-01-30T10:42:05;97570.19;;;12.50;45.43
69411;BME280;56604;48.652;9.194;2024-01-30T10:44:44;97565.38;;;12.58;45.47
69411;BME280;56604;48.652;9.194;2024-01-30T10:47:12;97568.34;;;12.74;45.73
69411;BME280;56604;48.652;9.194;2024-01-30T10:49:41;97569.16;;;12.63;45.91
69411;BME280;56604;48.652;9.194;2024-01-30T10:52:08;97566.28;;;12.52;44.74
69411;BME280;56604;48.652;9.194;2024-01-30T10:54:34;97567.09;;;12.53;45.17
69411;BME280;56604;48.652;9.194;2024-01-30T10:57:00;97559.50;;;12.45;45.91
69411;BME280;56604;48.652;9.194;2024-01-30T10:59:29;97558.72;;;12.44;45.91
69411;BME280;56604;48.652;9.194;2024-01-30T11:01:57;97556.38;;;12.24;46.20
69411;BME280;56604;48.652;9.194;2024-01-30T11:04:22;97560.84;;;12.24;45.74
69411;BME280;56604;48.652;9.194;2024-01-30T11:06:49;97555.94;;;12.39;45.01
69411;BME280;56604;48.652;9.194;2024-01-30T11:09:17;97557.19;;;12.25;45.49
69411;BME280;56604;48.652;9.194;2024-01-30T11:11:56;97562.22;;;12.26;45.62
69411;BME280;56604;48.652;9.194;2024-01-30T11:14:27;97565.13;;;11.95;45.44
69411;BME280;56604;48.652;9.194;2024-01-30T11:16:52;97554.59;;;12.06;45.51
69411;BME280;56604;48.652;9.194;2024-01-30T11:19:30;97559.56;;;12.14;46.08
69411;BME280;56604;48.652;9.194;2024-01-30T11:21:56;97549.97;;;12.32;45.50
69411;BME280;56604;48.652;9.194;2024-01-30T11:24:24;97556.16;;;12.26;45.45
69411;BME280;56604;48.652;9.194;2024-01-30T11:26:55;97558.31;;;12.29;45.15
69411;BME280;56604;48.652;9.194;2024-01-30T11:29:25;97550.53;;;12.34;44.94
69411;BME280;56604;48.652;9.194;2024-01-30T11:31:57;97556.63;;;12.34;44.78
69411;BME280;56604;48.652;9.194;2024-01-30T11:34:24;97554.88;;;12.28;45.02
69411;BME280;56604;48.652;9.194;2024-01-30T11:36:55;97552.50;;;12.27;44.78
69411;BME280;56604;48.652;9.194;2024-01-30T11:39:24;97548.94;;;12.21;45.49
69411;BME280;56604;48.652;9.194;2024-01-30T11:41:51;97545.50;;;12.32;45.65
69411;BME280;56604;48.652;9.194;2024-01-30T11:44:16;97551.91;;;12.25;45.25
69411;BME280;56604;48.652;9.194;2024-01-30T11:46:42;97552.50;;;12.27;45.64
69411;BME280;56604;48.652;9.194;2024-01-30T11:49:07;97550.25;;;12.12;44.97
69411;BME280;56604;48.652;9.194;2024-01-30T11:51:32;97553.75;;;12.24;45.85
69411;BME280;56604;48.652;9.194;2024-01-30T11:53:58;97534.59;;;12.29;45.41
69411;BME280;56604;48.652;9.194;2024-01-30T11:56:23;97538.28;;;12.28;44.30
69411;BME280;56604;48.652;9.194;2024-01-30T11:58:49;97528.53;;;12.40;45.59
69411;BME280;56604;48.652;9.194;2024-01-30T12:01:16;97532.78;;;12.41;45.09
69411;BME280;56604;48.652;9.194;2024-01-30T12:03:42;97522.91;;;12.48;45.13
69411;BME280;56604;48.652;9.194;2024-01-30T12:06:07;97519.47;;;12.59;45.29
69411;BME280;56604;48.652;9.194;2024-01-30T12:08:32;97517.53;;;12.67;45.40
69411;BME280;56604;48.652;9.194;2024-01-30T12:10:58;97523.72;;;12.60;44.35
69411;BME280;56604;48.652;9.194;2024-01-30T12:13:25;97513.41;;;12.59;45.67
69411;BME280;56604;48.652;9.194;2024-01-30T12:15:50;97505.84;;;12.63;45.67
69411;BME280;56604;48.652;9.194;2024-01-30T12:18:18;97513.97;;;12.73;45.59
69411;BME280;56604;48.652;9.194;2024-01-30T12:20:44;97499.84;;;12.79;45.63
69411;BME280;56604;48.652;9.194;2024-01-30T12:23:11;97502.50;;;12.79;44.80
69411;BME280;56604;48.652;9.194;2024-01-30T12:25:37;97501.31;;;12.98;44.68
69411;BME280;56604;48.652;9.194;2024-01-30T12:28:03;97506.09;;;13.13;45.09
69411;BME280;56604;48.652;9.194;2024-01-30T12:30:29;97504.97;;;12.97;44.82
69411;BME280;56604;48.652;9.194;2024-01-30T12:32:55;97502.09;;;13.11;44.95
69411;BME280;56604;48.652;9.194;2024-01-30T12:35:20;97498.34;;;12.83;44.61
69411;BME280;56604;48.652;9.194;2024-01-30T12:37:47;97502.22;;;13.04;44.50
69411;BME280;56604;48.652;9.194;2024-01-30T12:40:14;97500.88;;;12.90;45.31
69411;BME280;56604;48.652;9.194;2024-01-30T12:42:40;97490.34;;;12.78;45.72
69411;BME280;56604;48.652;9.194;2024-01-30T12:45:07;97487.22;;;12.93;45.09
69411;BME280;56604;48.652;9.194;2024-01-30T12:47:32;97494.22;;;12.87;45.66
69411;BME280;56604;48.652;9.194;2024-01-30T12:49:58;97491.41;;;13.05;45.43
69411;BME280;56604;48.652;9.194;2024-01-30T12:52:23;97488.59;;;12.72;44.92
69411;BME280;56604;48.652;9.194;2024-01-30T12:54:49;97490.53;;;12.88;45.26
69411;BME280;56604;48.652;9.194;2024-01-30T12:57:15;97489.59;;;12.94;44.83
69411;BME280;56604;48.652;9.194;2024-01-30T12:59:41;97493.91;;;13.24;44.44